sensor_id;sensor_type;location;lat;lon;timestamp;P1;durP1;ratioP1;P2;durP2;ratioP2
5965;SDS011;3009;43.224;27.976;2022-09-09T00:00:55;2.90;;;2.73;;
5965;SDS011;3009;43.224;27.976;2022-09-09T00:03:31;6.87;;;2.97;;
5965;SDS011;3009;43.224;27.976;2022-09-09T00:06:08;3.00;;;2.60;;
5965;SDS011;3009;43.224;27.976;2022-09-09T00:08:49;4.70;;;2.70;;
5965;SDS011;3009;43.224;27.976;2022-09-09T00:11:27;2.87;;;2.67;;
5965;SDS011;3009;43.224;27.976;2022-09-09T00:14:05;4.10;;;2.93;;
5965;SDS011;3009;43.224;27.976;2022-09-09T00:16:41;2.83;;;2.60;;
5965;SDS011;3009;43.224;27.976;2022-09-09T00:19:15;3.37;;;2.87;;
5965;SDS011;3009;43.224;27.976;2022-09-09T00:21:52;3.97;;;2.97;;
5965;SDS011;3009;43.224;27.976;2022-09-09T00:24:29;8.03;;;3.10;;
5965;SDS011;3009;43.224;27.976;2022-09-09T00:27:06;3.30;;;3.10;;
5965;SDS011;3009;43.224;27.976;2022-09-09T00:29:44;2.80;;;2.60;;
5965;SDS011;3009;43.224;27.976;2022-09-09T00:32:16;3.00;;;2.67;;
5965;SDS011;3009;43.224;27.976;2022-09-09T00:34:48;3.10;;;2.90;;
5965;SDS011;3009;43.224;27.976;2022-09-09T00:37:20;5.40;;;2.80;;
5965;SDS011;3009;43.224;27.976;2022-09-09T00:39:50;2.97;;;2.67;;
5965;SDS011;3009;43.224;27.976;2022-09-09T00:42:23;3.53;;;2.57;;
5965;SDS011;3009;43.224;27.976;2022-09-09T00:44:55;2.73;;;2.50;;
5965;SDS011;3009;43.224;27.976;2022-09-09T00:47:34;6.37;;;2.37;;
5965;SDS011;3009;43.224;27.976;2022-09-09T00:50:12;2.90;;;2.77;;
5965;SDS011;3009;43.224;27.976;2022-09-09T00:53:13;2.57;;;2.47;;
5965;SDS011;3009;43.224;27.976;2022-09-09T00:56:00;3.50;;;2.93;;
5965;SDS011;3009;43.224;27.976;2022-09-09T00:58:35;2.70;;;2.50;;
5965;SDS011;3009;43.224;27.976;2022-09-09T01:01:04;3.20;;;3.00;;
5965;SDS011;3009;43.224;27.976;2022-09-09T01:03:37;2.53;;;2.43;;
5965;SDS011;3009;43.224;27.976;2022-09-09T01:06:12;3.20;;;2.20;;
5965;SDS011;3009;43.224;27.976;2022-09-09T01:09:02;7.80;;;3.43;;
5965;SDS011;3009;43.224;27.976;2022-09-09T01:11:41;5.37;;;2.60;;
5965;SDS011;3009;43.224;27.976;2022-09-09T01:14:20;3.47;;;3.13;;
5965;SDS011;3009;43.224;27.976;2022-09-09T01:16:59;3.00;;;2.80;;
5965;SDS011;3009;43.224;27.976;2022-09-09T01:19:36;2.73;;;2.63;;
5965;SDS011;3009;43.224;27.976;2022-09-09T01:22:15;3.80;;;3.50;;
5965;SDS011;3009;43.224;27.976;2022-09-09T01:27:51;3.97;;;3.67;;
5965;SDS011;3009;43.224;27.976;2022-09-09T01:30:23;4.73;;;4.33;;
5965;SDS011;3009;43.224;27.976;2022-09-09T01:32:54;4.03;;;3.63;;
5965;SDS011;3009;43.224;27.976;2022-09-09T01:35:28;4.70;;;3.70;;
5965;SDS011;3009;43.224;27.976;2022-09-09T01:38:03;6.43;;;4.80;;
5965;SDS011;3009;43.224;27.976;2022-09-09T01:40:32;6.50;;;5.80;;
5965;SDS011;3009;43.224;27.976;2022-09-09T01:43:02;6.83;;;6.17;;
5965;SDS011;3009;43.224;27.976;2022-09-09T01:45:30;5.97;;;5.40;;
5965;SDS011;3009;43.224;27.976;2022-09-09T01:47:59;5.60;;;5.20;;
5965;SDS011;3009;43.224;27.976;2022-09-09T01:50:29;6.83;;;5.33;;
5965;SDS011;3009;43.224;27.976;2022-09-09T01:52:58;3.60;;;3.30;;
5965;SDS011;3009;43.224;27.976;2022-09-09T01:55:28;3.10;;;2.80;;
5965;SDS011;3009;43.224;27.976;2022-09-09T01:58:04;2.43;;;2.30;;
5965;SDS011;3009;43.224;27.976;2022-09-09T02:00:43;4.63;;;2.30;;
5965;SDS011;3009;43.224;27.976;2022-09-09T02:03:19;2.70;;;2.60;;
5965;SDS011;3009;43.224;27.976;2022-09-09T02:05:52;4.50;;;2.63;;
5965;SDS011;3009;43.224;27.976;2022-09-09T02:08:29;2.70;;;2.50;;
5965;SDS011;3009;43.224;27.976;2022-09-09T02:11:06;4.83;;;2.70;;
5965;SDS011;3009;43.224;27.976;2022-09-09T02:13:40;2.97;;;2.77;;
5965;SDS011;3009;43.224;27.976;2022-09-09T02:16:12;2.50;;;2.40;;
5965;SDS011;3009;43.224;27.976;2022-09-09T02:18:46;2.47;;;2.37;;
5965;SDS011;3009;43.224;27.976;2022-09-09T02:21:18;3.47;;;2.50;;
5965;SDS011;3009;43.224;27.976;2022-09-09T02:23:48;2.77;;;2.53;;
5965;SDS011;3009;43.224;27.976;2022-09-09T02:26:19;3.00;;;2.80;;
5965;SDS011;3009;43.224;27.976;2022-09-09T02:28:51;3.30;;;3.10;;
5965;SDS011;3009;43.224;27.976;2022-09-09T02:31:24;2.87;;;2.70;;
5965;SDS011;3009;43.224;27.976;2022-09-09T02:33:54;2.50;;;2.40;;
5965;SDS011;3009;43.224;27.976;2022-09-09T02:36:25;9.90;;;2.53;;
5965;SDS011;3009;43.224;27.976;2022-09-09T02:38:56;4.67;;;3.00;;
5965;SDS011;3009;43.224;27.976;2022-09-09T02:41:26;4.17;;;2.57;;
5965;SDS011;3009;43.224;27.976;2022-09-09T02:44:00;2.80;;;2.60;;
5965;SDS011;3009;43.224;27.976;2022-09-09T02:49:25;2.87;;;2.67;;
5965;SDS011;3009;43.224;27.976;2022-09-09T02:52:00;10.43;;;2.70;;
5965;SDS011;3009;43.224;27.976;2022-09-09T02:54:32;3.63;;;3.00;;
5965;SDS011;3009;43.224;27.976;2022-09-09T02:57:03;2.53;;;2.40;;
5965;SDS011;3009;43.224;27.976;2022-09-09T02:59:38;5.03;;;3.00;;
5965;SDS011;3009;43.224;27.976;2022-09-09T03:02:07;4.23;;;2.70;;
5965;SDS011;3009;43.224;27.976;2022-09-09T03:04:36;2.47;;;2.13;;
5965;SDS011;3009;43.224;27.976;2022-09-09T03:07:04;3.83;;;2.40;;
5965;SDS011;3009;43.224;27.976;2022-09-09T03:09:33;3.67;;;2.40;;
5965;SDS011;3009;43.224;27.976;2022-09-09T03:12:01;3.80;;;2.37;;
5965;SDS011;3009;43.224;27.976;2022-09-09T03:14:30;5.37;;;2.80;;
5965;SDS011;3009;43.224;27.976;2022-09-09T03:17:00;2.60;;;2.30;;
5965;SDS011;3009;43.224;27.976;2022-09-09T03:19:28;2.50;;;2.40;;
5965;SDS011;3009;43.224;27.976;2022-09-09T03:21:57;5.60;;;2.50;;
5965;SDS011;3009;43.224;27.976;2022-09-09T03:24:26;3.30;;;3.00;;
5965;SDS011;3009;43.224;27.976;2022-09-09T03:26:54;2.50;;;2.40;;
5965;SDS011;3009;43.224;27.976;2022-09-09T03:29:23;2.60;;;2.20;;
5965;SDS011;3009;43.224;27.976;2022-09-09T03:31:51;2.80;;;2.60;;
5965;SDS011;3009;43.224;27.976;2022-09-09T03:34:21;3.40;;;3.10;;
5965;SDS011;3009;43.224;27.976;2022-09-09T03:36:49;2.50;;;2.40;;
5965;SDS011;3009;43.224;27.976;2022-09-09T03:39:18;2.37;;;2.20;;
5965;SDS011;3009;43.224;27.976;2022-09-09T03:41:46;2.33;;;2.20;;
5965;SDS011;3009;43.224;27.976;2022-09-09T03:44:14;5.17;;;2.20;;
5965;SDS011;3009;43.224;27.976;2022-09-09T03:46:42;3.13;;;2.47;;
5965;SDS011;3009;43.224;27.976;2022-09-09T03:49:11;3.50;;;2.50;;
5965;SDS011;3009;43.224;27.976;2022-09-09T03:51:40;6.23;;;3.07;;
5965;SDS011;3009;43.224;27.976;2022-09-09T03:54:08;3.30;;;2.27;;
5965;SDS011;3009;43.224;27.976;2022-09-09T03:56:37;4.20;;;2.67;;
5965;SDS011;3009;43.224;27.976;2022-09-09T03:59:05;6.23;;;2.90;;
5965;SDS011;3009;43.224;27.976;2022-09-09T04:01:35;3.63;;;2.60;;
5965;SDS011;3009;43.224;27.976;2022-09-09T04:04:03;5.60;;;2.80;;
5965;SDS011;3009;43.224;27.976;2022-09-09T04:06:31;4.17;;;2.40;;
5965;SDS011;3009;43.224;27.976;2022-09-09T04:09:01;2.90;;;2.70;;
5965;SDS011;3009;43.224;27.976;2022-09-09T04:11:30;5.37;;;2.83;;
5965;SDS011;3009;43.224;27.976;2022-09-09T04:13:59;9.87;;;2.57;;
5965;SDS011;3009;43.224;27.976;2022-09-09T04:16:27;4.83;;;2.60;;
5965;SDS011;3009;43.224;27.976;2022-09-09T04:18:55;2.20;;;2.10;;
5965;SDS011;3009;43.224;27.976;2022-09-09T04:21:24;3.47;;;2.43;;
5965;SDS011;3009;43.224;27.976;2022-09-09T04:23:52;3.10;;;2.80;;
5965;SDS011;3009;43.224;27.976;2022-09-09T04:26:22;4.27;;;2.40;;
5965;SDS011;3009;43.224;27.976;2022-09-09T04:28:50;2.70;;;2.50;;
5965;SDS011;3009;43.224;27.976;2022-09-09T04:31:19;10.87;;;2.47;;
5965;SDS011;3009;43.224;27.976;2022-09-09T04:33:50;2.87;;;2.67;;
5965;SDS011;3009;43.224;27.976;2022-09-09T04:36:18;2.60;;;2.40;;
5965;SDS011;3009;43.224;27.976;2022-09-09T04:38:46;2.70;;;2.50;;
5965;SDS011;3009;43.224;27.976;2022-09-09T04:41:15;2.40;;;2.30;;
5965;SDS011;3009;43.224;27.976;2022-09-09T04:43:45;3.27;;;2.57;;
5965;SDS011;3009;43.224;27.976;2022-09-09T04:46:13;3.80;;;2.80;;
5965;SDS011;3009;43.224;27.976;2022-09-09T04:48:43;4.33;;;2.53;;
5965;SDS011;3009;43.224;27.976;2022-09-09T04:51:12;3.10;;;2.57;;
5965;SDS011;3009;43.224;27.976;2022-09-09T04:53:41;4.10;;;2.37;;
5965;SDS011;3009;43.224;27.976;2022-09-09T04:56:10;6.73;;;2.50;;
5965;SDS011;3009;43.224;27.976;2022-09-09T04:58:40;3.37;;;2.23;;
5965;SDS011;3009;43.224;27.976;2022-09-09T05:01:11;3.00;;;2.57;;
5965;SDS011;3009;43.224;27.976;2022-09-09T05:03:41;2.60;;;2.33;;
5965;SDS011;3009;43.224;27.976;2022-09-09T05:06:12;3.03;;;2.67;;
5965;SDS011;3009;43.224;27.976;2022-09-09T05:08:42;5.77;;;2.77;;
5965;SDS011;3009;43.224;27.976;2022-09-09T05:11:14;3.30;;;2.60;;
5965;SDS011;3009;43.224;27.976;2022-09-09T05:13:44;3.00;;;2.73;;
5965;SDS011;3009;43.224;27.976;2022-09-09T05:16:14;3.03;;;2.70;;
5965;SDS011;3009;43.224;27.976;2022-09-09T05:18:42;4.60;;;2.63;;
5965;SDS011;3009;43.224;27.976;2022-09-09T05:21:13;5.20;;;2.80;;
5965;SDS011;3009;43.224;27.976;2022-09-09T05:23:42;2.63;;;2.43;;
5965;SDS011;3009;43.224;27.976;2022-09-09T05:26:11;3.17;;;2.60;;
5965;SDS011;3009;43.224;27.976;2022-09-09T05:28:43;2.97;;;2.77;;
5965;SDS011;3009;43.224;27.976;2022-09-09T05:31:12;3.23;;;2.93;;
5965;SDS011;3009;43.224;27.976;2022-09-09T05:33:43;4.00;;;3.10;;
5965;SDS011;3009;43.224;27.976;2022-09-09T05:36:14;3.60;;;3.40;;
5965;SDS011;3009;43.224;27.976;2022-09-09T05:38:43;5.93;;;4.10;;
5965;SDS011;3009;43.224;27.976;2022-09-09T05:41:13;3.73;;;3.63;;
5965;SDS011;3009;43.224;27.976;2022-09-09T05:43:42;3.60;;;3.37;;
5965;SDS011;3009;43.224;27.976;2022-09-09T05:46:15;4.00;;;3.70;;
5965;SDS011;3009;43.224;27.976;2022-09-09T05:48:45;3.97;;;3.77;;
5965;SDS011;3009;43.224;27.976;2022-09-09T05:51:19;4.50;;;4.30;;
5965;SDS011;3009;43.224;27.976;2022-09-09T05:53:48;4.57;;;4.20;;
5965;SDS011;3009;43.224;27.976;2022-09-09T05:56:18;4.40;;;4.10;;
5965;SDS011;3009;43.224;27.976;2022-09-09T05:58:48;5.53;;;4.17;;
5965;SDS011;3009;43.224;27.976;2022-09-09T06:01:19;6.27;;;4.10;;
5965;SDS011;3009;43.224;27.976;2022-09-09T06:03:49;4.43;;;4.23;;
5965;SDS011;3009;43.224;27.976;2022-09-09T06:06:18;4.40;;;4.10;;
5965;SDS011;3009;43.224;27.976;2022-09-09T06:08:49;4.40;;;4.13;;
5965;SDS011;3009;43.224;27.976;2022-09-09T06:11:20;4.60;;;4.40;;
5965;SDS011;3009;43.224;27.976;2022-09-09T06:13:50;4.63;;;4.23;;
5965;SDS011;3009;43.224;27.976;2022-09-09T06:16:22;4.47;;;4.17;;
5965;SDS011;3009;43.224;27.976;2022-09-09T06:18:51;4.13;;;3.73;;
5965;SDS011;3009;43.224;27.976;2022-09-09T06:21:20;4.50;;;4.20;;
5965;SDS011;3009;43.224;27.976;2022-09-09T06:23:50;4.50;;;4.20;;
5965;SDS011;3009;43.224;27.976;2022-09-09T06:26:26;4.40;;;4.20;;
5965;SDS011;3009;43.224;27.976;2022-09-09T06:28:55;4.77;;;4.03;;
5965;SDS011;3009;43.224;27.976;2022-09-09T06:31:26;5.33;;;3.87;;
5965;SDS011;3009;43.224;27.976;2022-09-09T06:33:57;4.20;;;4.03;;
5965;SDS011;3009;43.224;27.976;2022-09-09T06:36:27;8.67;;;4.40;;
5965;SDS011;3009;43.224;27.976;2022-09-09T06:38:56;4.47;;;4.27;;
5965;SDS011;3009;43.224;27.976;2022-09-09T06:41:26;4.73;;;4.40;;
5965;SDS011;3009;43.224;27.976;2022-09-09T06:43:56;4.30;;;3.90;;
5965;SDS011;3009;43.224;27.976;2022-09-09T06:46:26;4.27;;;4.07;;
5965;SDS011;3009;43.224;27.976;2022-09-09T06:48:56;4.90;;;4.23;;
5965;SDS011;3009;43.224;27.976;2022-09-09T06:51:26;4.03;;;3.83;;
5965;SDS011;3009;43.224;27.976;2022-09-09T06:53:56;5.30;;;3.97;;
5965;SDS011;3009;43.224;27.976;2022-09-09T06:56:26;4.50;;;4.30;;
5965;SDS011;3009;43.224;27.976;2022-09-09T06:58:55;4.43;;;4.13;;
5965;SDS011;3009;43.224;27.976;2022-09-09T07:01:27;7.20;;;3.90;;
5965;SDS011;3009;43.224;27.976;2022-09-09T07:03:57;4.00;;;3.80;;
5965;SDS011;3009;43.224;27.976;2022-09-09T07:06:27;4.30;;;3.90;;
5965;SDS011;3009;43.224;27.976;2022-09-09T07:08:57;4.20;;;4.00;;
5965;SDS011;3009;43.224;27.976;2022-09-09T07:11:28;4.13;;;3.93;;
5965;SDS011;3009;43.224;27.976;2022-09-09T07:13:58;4.47;;;4.17;;
5965;SDS011;3009;43.224;27.976;2022-09-09T07:16:29;4.30;;;4.00;;
5965;SDS011;3009;43.224;27.976;2022-09-09T07:18:58;4.57;;;4.20;;
5965;SDS011;3009;43.224;27.976;2022-09-09T07:21:27;9.07;;;4.10;;
5965;SDS011;3009;43.224;27.976;2022-09-09T07:23:56;6.70;;;4.07;;
5965;SDS011;3009;43.224;27.976;2022-09-09T07:26:25;4.23;;;3.97;;
5965;SDS011;3009;43.224;27.976;2022-09-09T07:28:55;5.40;;;3.93;;
5965;SDS011;3009;43.224;27.976;2022-09-09T07:31:25;4.07;;;3.70;;
5965;SDS011;3009;43.224;27.976;2022-09-09T07:33:56;3.40;;;3.20;;
5965;SDS011;3009;43.224;27.976;2022-09-09T07:36:26;3.23;;;3.07;;
5965;SDS011;3009;43.224;27.976;2022-09-09T07:38:59;5.07;;;3.60;;
5965;SDS011;3009;43.224;27.976;2022-09-09T07:41:31;3.20;;;2.90;;
5965;SDS011;3009;43.224;27.976;2022-09-09T07:44:03;3.93;;;3.60;;
5965;SDS011;3009;43.224;27.976;2022-09-09T07:46:33;3.00;;;2.90;;
5965;SDS011;3009;43.224;27.976;2022-09-09T07:49:03;3.50;;;3.20;;
5965;SDS011;3009;43.224;27.976;2022-09-09T07:51:32;3.87;;;3.30;;
5965;SDS011;3009;43.224;27.976;2022-09-09T07:54:02;3.10;;;2.93;;
5965;SDS011;3009;43.224;27.976;2022-09-09T07:56:31;3.37;;;3.13;;
5965;SDS011;3009;43.224;27.976;2022-09-09T07:59:00;4.63;;;3.43;;
5965;SDS011;3009;43.224;27.976;2022-09-09T08:01:31;3.33;;;3.13;;
5965;SDS011;3009;43.224;27.976;2022-09-09T08:04:04;3.67;;;3.27;;
5965;SDS011;3009;43.224;27.976;2022-09-09T08:06:35;3.93;;;2.87;;
5965;SDS011;3009;43.224;27.976;2022-09-09T08:09:04;3.47;;;3.20;;
5965;SDS011;3009;43.224;27.976;2022-09-09T08:11:33;3.23;;;3.03;;
5965;SDS011;3009;43.224;27.976;2022-09-09T08:14:04;26.53;;;4.47;;
5965;SDS011;3009;43.224;27.976;2022-09-09T08:16:34;3.20;;;3.00;;
5965;SDS011;3009;43.224;27.976;2022-09-09T08:19:06;6.67;;;4.43;;
5965;SDS011;3009;43.224;27.976;2022-09-09T08:21:35;3.67;;;3.13;;
5965;SDS011;3009;43.224;27.976;2022-09-09T08:24:07;3.40;;;3.10;;
5965;SDS011;3009;43.224;27.976;2022-09-09T08:26:37;4.43;;;2.93;;
5965;SDS011;3009;43.224;27.976;2022-09-09T08:29:08;3.47;;;3.27;;
5965;SDS011;3009;43.224;27.976;2022-09-09T08:31:38;5.00;;;4.27;;
5965;SDS011;3009;43.224;27.976;2022-09-09T08:34:10;3.37;;;3.10;;
5965;SDS011;3009;43.224;27.976;2022-09-09T08:36:39;4.73;;;3.10;;
5965;SDS011;3009;43.224;27.976;2022-09-09T08:39:10;6.80;;;3.80;;
5965;SDS011;3009;43.224;27.976;2022-09-09T08:44:53;3.27;;;3.07;;
5965;SDS011;3009;43.224;27.976;2022-09-09T08:47:39;2.97;;;2.80;;
5965;SDS011;3009;43.224;27.976;2022-09-09T08:50:21;5.50;;;3.20;;
5965;SDS011;3009;43.224;27.976;2022-09-09T08:52:54;3.70;;;3.50;;
5965;SDS011;3009;43.224;27.976;2022-09-09T08:55:32;3.00;;;2.90;;
5965;SDS011;3009;43.224;27.976;2022-09-09T08:58:09;4.97;;;3.40;;
5965;SDS011;3009;43.224;27.976;2022-09-09T09:00:44;3.70;;;3.40;;
5965;SDS011;3009;43.224;27.976;2022-09-09T09:03:28;3.23;;;3.10;;
5965;SDS011;3009;43.224;27.976;2022-09-09T09:06:06;3.60;;;3.10;;
5965;SDS011;3009;43.224;27.976;2022-09-09T09:08:47;3.10;;;2.90;;
5965;SDS011;3009;43.224;27.976;2022-09-09T09:11:22;2.87;;;2.70;;
5965;SDS011;3009;43.224;27.976;2022-09-09T09:13:51;4.80;;;3.50;;
5965;SDS011;3009;43.224;27.976;2022-09-09T09:16:29;7.13;;;3.37;;
5965;SDS011;3009;43.224;27.976;2022-09-09T09:19:04;3.60;;;3.30;;
5965;SDS011;3009;43.224;27.976;2022-09-09T09:21:38;4.83;;;3.23;;
5965;SDS011;3009;43.224;27.976;2022-09-09T09:24:13;3.40;;;3.20;;
5965;SDS011;3009;43.224;27.976;2022-09-09T09:26:47;3.23;;;3.03;;
5965;SDS011;3009;43.224;27.976;2022-09-09T09:29:16;3.83;;;3.17;;
5965;SDS011;3009;43.224;27.976;2022-09-09T09:31:47;3.20;;;3.00;;
5965;SDS011;3009;43.224;27.976;2022-09-09T09:34:21;3.50;;;3.30;;
5965;SDS011;3009;43.224;27.976;2022-09-09T09:36:53;3.17;;;3.07;;
5965;SDS011;3009;43.224;27.976;2022-09-09T09:39:24;3.20;;;3.00;;
5965;SDS011;3009;43.224;27.976;2022-09-09T09:42:15;3.70;;;3.50;;
5965;SDS011;3009;43.224;27.976;2022-09-09T09:44:49;3.10;;;3.00;;
5965;SDS011;3009;43.224;27.976;2022-09-09T09:47:18;3.67;;;3.30;;
5965;SDS011;3009;43.224;27.976;2022-09-09T09:49:51;2.97;;;2.87;;
5965;SDS011;3009;43.224;27.976;2022-09-09T09:52:22;3.30;;;3.10;;
5965;SDS011;3009;43.224;27.976;2022-09-09T09:54:52;5.77;;;3.50;;
5965;SDS011;3009;43.224;27.976;2022-09-09T09:57:22;4.20;;;3.63;;
5965;SDS011;3009;43.224;27.976;2022-09-09T10:00:03;5.53;;;3.20;;
5965;SDS011;3009;43.224;27.976;2022-09-09T10:02:42;3.40;;;3.20;;
5965;SDS011;3009;43.224;27.976;2022-09-09T10:05:14;3.30;;;3.20;;
5965;SDS011;3009;43.224;27.976;2022-09-09T10:08:03;3.10;;;3.00;;
5965;SDS011;3009;43.224;27.976;2022-09-09T10:10:38;4.70;;;3.90;;
5965;SDS011;3009;43.224;27.976;2022-09-09T10:13:15;3.60;;;3.30;;
5965;SDS011;3009;43.224;27.976;2022-09-09T10:15:53;3.07;;;2.93;;
5965;SDS011;3009;43.224;27.976;2022-09-09T10:18:39;4.03;;;3.73;;
5965;SDS011;3009;43.224;27.976;2022-09-09T10:21:24;3.90;;;3.20;;
5965;SDS011;3009;43.224;27.976;2022-09-09T10:24:10;4.50;;;3.40;;
5965;SDS011;3009;43.224;27.976;2022-09-09T10:26:55;3.10;;;2.90;;
5965;SDS011;3009;43.224;27.976;2022-09-09T10:29:35;3.30;;;3.10;;
5965;SDS011;3009;43.224;27.976;2022-09-09T10:32:22;3.37;;;3.23;;
5965;SDS011;3009;43.224;27.976;2022-09-09T10:35:09;3.20;;;3.00;;
5965;SDS011;3009;43.224;27.976;2022-09-09T10:37:41;7.23;;;3.70;;
5965;SDS011;3009;43.224;27.976;2022-09-09T10:40:26;8.03;;;3.33;;
5965;SDS011;3009;43.224;27.976;2022-09-09T10:43:01;3.73;;;3.10;;
5965;SDS011;3009;43.224;27.976;2022-09-09T10:45:42;3.73;;;3.00;;
5965;SDS011;3009;43.224;27.976;2022-09-09T10:48:22;5.37;;;3.43;;
5965;SDS011;3009;43.224;27.976;2022-09-09T10:51:19;3.37;;;3.17;;
5965;SDS011;3009;43.224;27.976;2022-09-09T10:54:07;3.93;;;3.50;;
5965;SDS011;3009;43.224;27.976;2022-09-09T10:56:49;6.07;;;3.63;;
5965;SDS011;3009;43.224;27.976;2022-09-09T10:59:23;3.90;;;3.60;;
5965;SDS011;3009;43.224;27.976;2022-09-09T11:01:57;3.60;;;3.30;;
5965;SDS011;3009;43.224;27.976;2022-09-09T11:04:30;3.53;;;3.23;;
5965;SDS011;3009;43.224;27.976;2022-09-09T11:07:05;5.17;;;3.40;;
5965;SDS011;3009;43.224;27.976;2022-09-09T11:09:40;4.93;;;3.37;;
5965;SDS011;3009;43.224;27.976;2022-09-09T11:12:15;3.60;;;3.40;;
5965;SDS011;3009;43.224;27.976;2022-09-09T11:14:47;3.67;;;3.40;;
5965;SDS011;3009;43.224;27.976;2022-09-09T11:17:20;3.83;;;3.53;;
5965;SDS011;3009;43.224;27.976;2022-09-09T11:19:52;6.20;;;2.93;;
5965;SDS011;3009;43.224;27.976;2022-09-09T11:22:23;7.23;;;3.83;;
5965;SDS011;3009;43.224;27.976;2022-09-09T11:24:58;3.60;;;3.40;;
5965;SDS011;3009;43.224;27.976;2022-09-09T11:27:31;3.63;;;3.43;;
5965;SDS011;3009;43.224;27.976;2022-09-09T11:33:33;4.40;;;4.20;;
5965;SDS011;3009;43.224;27.976;2022-09-09T11:36:24;3.60;;;3.50;;
5965;SDS011;3009;43.224;27.976;2022-09-09T11:39:06;3.33;;;3.03;;
5965;SDS011;3009;43.224;27.976;2022-09-09T11:41:52;3.23;;;3.07;;
5965;SDS011;3009;43.224;27.976;2022-09-09T11:44:23;3.30;;;3.20;;
5965;SDS011;3009;43.224;27.976;2022-09-09T11:46:56;4.20;;;4.00;;
5965;SDS011;3009;43.224;27.976;2022-09-09T11:49:28;3.30;;;3.20;;
5965;SDS011;3009;43.224;27.976;2022-09-09T11:51:58;6.93;;;4.03;;
5965;SDS011;3009;43.224;27.976;2022-09-09T11:54:28;3.73;;;3.53;;
5965;SDS011;3009;43.224;27.976;2022-09-09T11:56:57;6.57;;;3.20;;
5965;SDS011;3009;43.224;27.976;2022-09-09T11:59:28;3.43;;;3.23;;
5965;SDS011;3009;43.224;27.976;2022-09-09T12:01:58;3.40;;;3.30;;
5965;SDS011;3009;43.224;27.976;2022-09-09T12:04:30;3.30;;;3.10;;
5965;SDS011;3009;43.224;27.976;2022-09-09T12:07:21;3.30;;;3.10;;
5965;SDS011;3009;43.224;27.976;2022-09-09T12:09:57;3.60;;;3.30;;
5965;SDS011;3009;43.224;27.976;2022-09-09T12:12:30;4.00;;;3.70;;
5965;SDS011;3009;43.224;27.976;2022-09-09T12:17:50;4.13;;;3.77;;
5965;SDS011;3009;43.224;27.976;2022-09-09T12:20:20;4.07;;;3.63;;
5965;SDS011;3009;43.224;27.976;2022-09-09T12:22:52;4.43;;;3.30;;
5965;SDS011;3009;43.224;27.976;2022-09-09T12:25:48;3.53;;;3.33;;
5965;SDS011;3009;43.224;27.976;2022-09-09T12:28:39;5.03;;;3.37;;
5965;SDS011;3009;43.224;27.976;2022-09-09T12:31:14;3.80;;;3.43;;
5965;SDS011;3009;43.224;27.976;2022-09-09T12:33:48;4.07;;;3.33;;
5965;SDS011;3009;43.224;27.976;2022-09-09T12:36:18;4.30;;;3.60;;
5965;SDS011;3009;43.224;27.976;2022-09-09T12:38:49;4.93;;;3.13;;
5965;SDS011;3009;43.224;27.976;2022-09-09T12:41:20;3.80;;;3.50;;
5965;SDS011;3009;43.224;27.976;2022-09-09T12:43:49;3.40;;;3.20;;
5965;SDS011;3009;43.224;27.976;2022-09-09T12:46:22;4.80;;;3.67;;
5965;SDS011;3009;43.224;27.976;2022-09-09T12:48:58;3.77;;;3.47;;
5965;SDS011;3009;43.224;27.976;2022-09-09T12:51:28;3.60;;;3.40;;
5965;SDS011;3009;43.224;27.976;2022-09-09T12:53:58;4.17;;;3.87;;
5965;SDS011;3009;43.224;27.976;2022-09-09T12:56:28;3.93;;;3.70;;
5965;SDS011;3009;43.224;27.976;2022-09-09T12:58:58;3.53;;;3.33;;
5965;SDS011;3009;43.224;27.976;2022-09-09T13:01:29;3.83;;;3.30;;
5965;SDS011;3009;43.224;27.976;2022-09-09T13:03:58;3.83;;;3.63;;
5965;SDS011;3009;43.224;27.976;2022-09-09T13:06:28;4.47;;;3.50;;
5965;SDS011;3009;43.224;27.976;2022-09-09T13:08:58;3.50;;;3.40;;
5965;SDS011;3009;43.224;27.976;2022-09-09T13:11:29;4.27;;;3.87;;
5965;SDS011;3009;43.224;27.976;2022-09-09T13:14:03;6.37;;;3.60;;
5965;SDS011;3009;43.224;27.976;2022-09-09T13:16:34;3.93;;;3.73;;
5965;SDS011;3009;43.224;27.976;2022-09-09T13:19:08;4.23;;;3.80;;
5965;SDS011;3009;43.224;27.976;2022-09-09T13:21:41;3.83;;;3.47;;
5965;SDS011;3009;43.224;27.976;2022-09-09T13:24:22;4.40;;;4.10;;
5965;SDS011;3009;43.224;27.976;2022-09-09T13:26:56;4.43;;;4.23;;
5965;SDS011;3009;43.224;27.976;2022-09-09T13:29:25;4.00;;;3.60;;
5965;SDS011;3009;43.224;27.976;2022-09-09T13:31:54;3.87;;;3.57;;
5965;SDS011;3009;43.224;27.976;2022-09-09T13:34:33;3.97;;;3.67;;
5965;SDS011;3009;43.224;27.976;2022-09-09T13:37:03;6.13;;;4.47;;
5965;SDS011;3009;43.224;27.976;2022-09-09T13:39:33;8.33;;;4.50;;
5965;SDS011;3009;43.224;27.976;2022-09-09T13:42:04;4.40;;;4.10;;
5965;SDS011;3009;43.224;27.976;2022-09-09T13:44:34;6.03;;;4.57;;
5965;SDS011;3009;43.224;27.976;2022-09-09T13:47:17;4.77;;;4.47;;
5965;SDS011;3009;43.224;27.976;2022-09-09T13:49:47;4.30;;;4.00;;
5965;SDS011;3009;43.224;27.976;2022-09-09T13:52:16;5.37;;;4.87;;
5965;SDS011;3009;43.224;27.976;2022-09-09T13:54:47;4.87;;;4.40;;
5965;SDS011;3009;43.224;27.976;2022-09-09T13:57:16;5.40;;;4.53;;
5965;SDS011;3009;43.224;27.976;2022-09-09T13:59:45;4.43;;;4.13;;
5965;SDS011;3009;43.224;27.976;2022-09-09T14:02:32;4.93;;;4.63;;
5965;SDS011;3009;43.224;27.976;2022-09-09T14:05:01;4.80;;;4.50;;
5965;SDS011;3009;43.224;27.976;2022-09-09T14:07:29;4.80;;;4.50;;
5965;SDS011;3009;43.224;27.976;2022-09-09T14:09:58;5.13;;;4.73;;
5965;SDS011;3009;43.224;27.976;2022-09-09T14:12:26;15.73;;;5.93;;
5965;SDS011;3009;43.224;27.976;2022-09-09T14:14:55;8.17;;;4.60;;
5965;SDS011;3009;43.224;27.976;2022-09-09T14:17:23;5.40;;;4.90;;
5965;SDS011;3009;43.224;27.976;2022-09-09T14:19:57;6.47;;;4.80;;
5965;SDS011;3009;43.224;27.976;2022-09-09T14:22:25;5.00;;;4.50;;
5965;SDS011;3009;43.224;27.976;2022-09-09T14:24:54;4.40;;;4.20;;
5965;SDS011;3009;43.224;27.976;2022-09-09T14:27:23;7.57;;;4.90;;
5965;SDS011;3009;43.224;27.976;2022-09-09T14:29:53;4.47;;;4.00;;
5965;SDS011;3009;43.224;27.976;2022-09-09T14:32:21;4.90;;;4.60;;
5965;SDS011;3009;43.224;27.976;2022-09-09T14:34:49;7.60;;;4.83;;
5965;SDS011;3009;43.224;27.976;2022-09-09T14:37:19;5.10;;;4.70;;
5965;SDS011;3009;43.224;27.976;2022-09-09T14:39:47;5.40;;;4.47;;
5965;SDS011;3009;43.224;27.976;2022-09-09T14:42:17;5.13;;;4.23;;
5965;SDS011;3009;43.224;27.976;2022-09-09T14:44:45;5.40;;;5.00;;
5965;SDS011;3009;43.224;27.976;2022-09-09T14:47:14;4.47;;;4.17;;
5965;SDS011;3009;43.224;27.976;2022-09-09T14:49:42;4.73;;;4.37;;
5965;SDS011;3009;43.224;27.976;2022-09-09T14:52:12;4.50;;;4.10;;
5965;SDS011;3009;43.224;27.976;2022-09-09T14:54:42;4.50;;;4.23;;
5965;SDS011;3009;43.224;27.976;2022-09-09T14:57:10;5.57;;;5.07;;
5965;SDS011;3009;43.224;27.976;2022-09-09T14:59:38;6.50;;;4.30;;
5965;SDS011;3009;43.224;27.976;2022-09-09T15:02:07;4.73;;;4.43;;
5965;SDS011;3009;43.224;27.976;2022-09-09T15:04:36;4.33;;;4.13;;
5965;SDS011;3009;43.224;27.976;2022-09-09T15:07:04;6.00;;;4.60;;
5965;SDS011;3009;43.224;27.976;2022-09-09T15:09:33;4.57;;;4.17;;
5965;SDS011;3009;43.224;27.976;2022-09-09T15:12:02;5.13;;;4.63;;
5965;SDS011;3009;43.224;27.976;2022-09-09T15:14:31;5.50;;;5.10;;
5965;SDS011;3009;43.224;27.976;2022-09-09T15:17:00;4.53;;;4.23;;
5965;SDS011;3009;43.224;27.976;2022-09-09T15:19:28;9.03;;;5.00;;
5965;SDS011;3009;43.224;27.976;2022-09-09T15:21:56;6.17;;;4.10;;
5965;SDS011;3009;43.224;27.976;2022-09-09T15:24:25;5.37;;;4.60;;
5965;SDS011;3009;43.224;27.976;2022-09-09T15:26:54;8.87;;;4.10;;
5965;SDS011;3009;43.224;27.976;2022-09-09T15:29:24;10.90;;;5.20;;
5965;SDS011;3009;43.224;27.976;2022-09-09T15:31:53;5.20;;;4.70;;
5965;SDS011;3009;43.224;27.976;2022-09-09T15:34:21;5.43;;;4.63;;
5965;SDS011;3009;43.224;27.976;2022-09-09T15:36:49;4.73;;;4.33;;
5965;SDS011;3009;43.224;27.976;2022-09-09T15:39:18;4.90;;;4.50;;
5965;SDS011;3009;43.224;27.976;2022-09-09T15:41:46;4.60;;;4.40;;
5965;SDS011;3009;43.224;27.976;2022-09-09T15:44:15;8.07;;;4.40;;
5965;SDS011;3009;43.224;27.976;2022-09-09T15:46:46;4.70;;;4.40;;